Latest Weather Observations for Parafield

IDS60901

Issued at 2:55 am CDT Saturday 22 November 2014 (issued every 10 minutes, with the page automatically refreshed every 10 minutes)

About weather observations | Map of Adelaide area stations | Latest observations for Adelaide area | Other Formats
Station Details ID: 023013 Name: PARAFIELD AIRPORT Lat: -34.80 Lon: 138.63 Height: 9.5 m
Data from the previous 72 hours. | See also: Recent months at Parafield
Date/Time
CDT
Tmp

°C
App
Tmp
°C
Dew
Point
°C
Rel
Hum
%
Delta-T

°C
Wind Press
QNH
hPa
Press
MSL
hPa
Rain
since
9 am
mm
Dir
 
Spd
km/h
Gust
km/h
Spd
kts
Gust
kts
22/02:30am 23.6 18.3 5.0 30 9.3 NNE 22 30 12 16 1006.0 1006.0 -
22/02:00am 23.2 18.0 5.6 32 8.9 NE 22 28 12 15 1006.5 1006.5 -
22/01:30am 23.3 18.1 5.7 32 8.9 NE 22 28 12 15 1006.7 1006.7 -
22/01:00am 22.7 18.0 6.0 34 8.5 NE 20 24 11 13 1007.1 1007.1 -
22/12:30am 22.8 18.6 5.7 33 8.6 NE 17 20 9 11 1007.7 1007.7 -
22/12:00am 22.9 19.5 5.8 33 8.7 NE 13 15 7 8 1008.4 1008.4 -
 
Date/Time
CDT
Tmp

°C
App
Tmp
°C
Dew
Point
°C
Rel
Hum
%
Delta-T

°C
Wind Press
QNH
hPa
Press
MSL
hPa
Rain
since
9 am
mm
Dir
 
Spd
km/h
Gust
km/h
Spd
kts
Gust
kts
21/11:30pm 23.5 19.2 5.4 31 9.1 ENE 17 20 9 11 1008.6 1008.6 -
21/11:00pm 22.7 19.1 5.2 32 8.7 ENE 13 20 7 11 1009.0 1009.0 -
21/10:30pm 22.4 18.5 5.4 33 8.5 E 15 20 8 11 1009.5 1009.5 -
21/10:00pm 21.1 19.5 8.7 45 6.5 NNE 7 9 4 5 1010.0 1010.0 -
21/09:30pm 21.2 19.6 8.8 45 6.6 E 7 9 4 5 1010.1 1010.1 -
21/09:00pm 21.6 19.7 9.2 45 6.6 ESE 9 11 5 6 1010.1 1010.1 0.0
21/08:30pm 23.4 22.5 6.2 33 8.8 CALM 0 0 0 0 1010.4 1010.4 -
21/08:00pm 24.3 23.2 5.1 29 9.7 CALM 0 0 0 0 1010.3 1010.3 -
21/07:30pm 24.4 23.6 6.6 32 9.2 CALM 0 0 0 0 1010.2 1010.2 -
21/07:00pm 26.0 23.7 5.6 27 10.5 W 7 9 4 5 1010.1 1010.1 -
21/06:30pm 26.5 23.6 4.9 25 11.0 SW 9 11 5 6 1009.9 1009.9 -
21/06:00pm 26.5 24.0 4.9 25 11.0 WSW 7 13 4 7 1010.2 1010.2 -
21/05:30pm 26.3 24.0 5.8 27 10.6 S 7 15 4 8 1010.2 1010.2 -
21/05:00pm 26.5 24.0 6.5 28 10.5 SW 9 15 5 8 1010.4 1010.4 -
21/04:30pm 25.2 21.9 6.4 30 9.7 W 13 20 7 11 1010.7 1010.7 -
21/04:00pm 25.2 21.9 6.4 30 9.7 WNW 13 22 7 12 1010.8 1010.8 -
21/03:30pm 25.0 22.5 8.1 34 9.0 WSW 11 19 6 10 1011.0 1011.0 -
21/03:00pm 25.0 21.7 6.2 30 9.7 WSW 13 19 7 10 1011.4 1011.4 -
21/02:30pm 24.8 21.9 6.5 31 9.5 WSW 11 19 6 10 1011.5 1011.5 -
21/02:00pm 24.0 20.8 6.7 33 8.9 WSW 13 26 7 14 1012.2 1012.2 -
21/01:30pm 23.2 20.7 8.1 38 8.0 W 11 20 6 11 1012.8 1012.8 -
21/01:00pm 22.7 19.1 6.9 36 8.1 WNW 15 22 8 12 1013.0 1013.0 -
21/12:30pm 21.3 17.3 8.2 43 6.8 NW 19 24 10 13 1013.4 1013.4 -
21/12:00pm 22.3 19.6 8.8 42 7.2 WSW 13 20 7 11 1013.5 1013.5 0.0
21/11:30am 21.4 18.9 9.6 47 6.3 W 13 24 7 13 1013.7 1013.7 0.0
21/11:00am 20.7 18.3 9.9 50 5.8 NNW 13 17 7 9 1013.9 1013.9 0.0
21/10:30am 20.4 18.1 10.5 53 5.4 SW 13 20 7 11 1013.9 1013.9 0.0
21/10:00am 19.4 17.3 9.6 53 5.2 WNW 11 19 6 10 1013.8 1013.8 0.0
21/09:30am 19.2 17.1 9.7 54 5.0 WSW 11 19 6 10 1013.7 1013.7 0.0
21/09:00am 18.7 16.6 9.8 56 4.7 W 11 17 6 9 1013.5 1013.5 4.4
21/08:30am 17.8 15.6 9.2 57 4.5 W 11 19 6 10 1013.3 1013.3 4.4
21/08:00am 17.3 15.2 9.7 61 4.0 W 11 15 6 8 1013.2 1013.2 4.4
21/07:30am 16.2 15.9 11.4 73 2.6 W 4 7 2 4 1013.1 1013.1 4.4
21/07:00am 15.0 13.9 10.8 76 2.2 WSW 7 7 4 4 1012.8 1012.8 4.4
21/06:30am 14.7 14.0 9.9 73 2.5 SW 4 7 2 4 1012.2 1012.2 4.4
21/06:00am 15.7 13.7 10.2 70 2.9 SW 11 17 6 9 1012.4 1012.4 4.4
21/05:30am 15.9 13.5 10.0 68 3.1 SSW 13 17 7 9 1012.5 1012.5 4.4
21/05:00am 15.9 13.5 10.0 68 3.1 SW 13 17 7 9 1011.9 1011.9 4.4
21/04:30am 15.9 13.1 10.0 68 3.1 SW 15 20 8 11 1011.7 1011.7 4.4
21/04:00am 15.8 13.4 10.1 69 3.0 SSW 13 17 7 9 1011.8 1011.8 4.4
21/03:30am 15.8 12.6 10.1 69 3.0 SW 17 20 9 11 1011.9 1011.9 4.4
21/03:00am 16.1 12.8 10.8 71 2.8 SW 19 24 10 13 1011.8 1011.8 4.4
21/02:30am 16.3 12.9 11.2 72 2.7 SSW 20 30 11 16 1011.7 1011.7 4.4
21/02:00am 16.5 13.1 11.2 71 2.9 SSW 20 28 11 15 1011.8 1011.8 4.4
21/01:30am 16.7 13.7 12.0 74 2.6 SSW 19 26 10 14 1012.0 1012.0 4.4
21/01:23am 16.6 13.6 11.9 74 2.6 SSW 19 26 10 14 1012.1 1012.1 4.4
21/01:00am 16.5 14.0 12.3 76 2.3 SSW 17 24 9 13 1011.9 1011.9 4.4
21/12:49am 16.5 13.8 13.0 80 1.9 SSW 19 22 10 12 1012.0 1012.0 4.4
21/12:30am 16.7 13.7 12.7 77 2.2 SSW 20 26 11 14 1012.0 1012.0 4.4
21/12:19am 16.9 13.5 12.6 76 2.4 SSW 22 30 12 16 1012.0 1012.0 4.4
21/12:00am 17.0 15.1 13.1 78 2.2 SW 15 24 8 13 1012.0 1012.0 4.4
 
Date/Time
CDT
Tmp

°C
App
Tmp
°C
Dew
Point
°C
Rel
Hum
%
Delta-T

°C
Wind Press
QNH
hPa
Press
MSL
hPa
Rain
since
9 am
mm
Dir
 
Spd
km/h
Gust
km/h
Spd
kts
Gust
kts
20/11:30pm 16.9 15.1 14.4 85 1.4 SSW 17 22 9 12 1011.7 1011.7 4.4
20/11:00pm 17.4 14.6 14.3 82 1.8 WSW 22 32 12 17 1011.7 1011.7 4.4
20/10:30pm 17.6 14.8 14.3 81 1.9 SW 22 33 12 18 1011.8 1011.8 4.4
20/10:00pm 17.7 14.6 14.4 81 1.9 WSW 24 35 13 19 1011.7 1011.7 4.4
20/09:30pm 18.1 15.1 14.8 81 1.9 SW 24 35 13 19 1011.4 1011.4 4.4
20/09:00pm 18.2 14.9 14.9 81 1.9 WSW 26 33 14 18 1010.8 1010.8 4.4
20/08:30pm 18.4 16.0 14.5 78 2.3 WSW 20 32 11 17 1010.4 1010.4 4.4
20/08:00pm 18.3 15.2 14.4 78 2.2 SW 24 32 13 17 1010.1 1010.1 4.4
20/07:30pm 18.4 16.1 14.7 79 2.1 SSW 20 28 11 15 1009.5 1009.5 4.4
20/07:08pm 18.8 15.3 14.5 76 2.5 SW 26 32 14 17 1009.2 1009.2 4.4
20/07:00pm 18.8 15.2 14.3 75 2.6 SW 26 33 14 18 1009.0 1009.0 4.4
20/06:30pm 20.9 17.6 14.1 65 4.0 WSW 24 35 13 19 1008.6 1008.6 4.4
20/06:00pm 21.6 19.5 15.2 67 3.8 SW 20 28 11 15 1008.2 1008.2 4.4
20/05:30pm 21.6 19.1 16.1 71 3.3 SW 24 32 13 17 1007.8 1007.8 4.4
20/05:00pm 23.5 20.3 16.3 64 4.4 W 28 39 15 21 1007.4 1007.4 4.4
20/04:30pm 23.3 20.8 17.1 68 3.8 W 26 37 14 20 1007.4 1007.4 4.4
20/04:00pm 24.0 22.1 18.6 72 3.4 W 26 33 14 18 1007.0 1007.0 4.4
20/03:30pm 23.4 21.6 18.7 75 3.0 NW 26 33 14 18 1007.2 1007.2 4.4
20/03:22pm 24.0 23.3 19.5 76 2.9 NW 22 30 12 16 1007.2 1007.2 4.4
20/03:00pm 22.8 22.6 19.4 81 2.2 NNW 19 26 10 14 1007.6 1007.6 4.4
20/02:30pm 22.5 22.3 19.7 84 1.8 NNW 20 28 11 15 1007.9 1007.9 4.4
20/02:11pm 21.8 21.5 19.5 87 1.5 N 20 26 11 14 1008.1 1008.1 4.4
20/02:00pm 21.7 20.7 19.6 88 1.3 N 24 33 13 18 1008.2 1008.2 4.4
20/01:52pm 21.3 20.7 18.9 86 1.5 N 20 33 11 18 1008.4 1008.4 4.4
20/01:30pm 21.0 18.9 18.9 88 1.3 N 28 39 15 21 1008.5 1008.5 4.4
20/01:00pm 21.4 20.2 19.3 88 1.3 N 24 32 13 17 1008.6 1008.6 4.0
20/12:30pm 20.3 19.4 19.0 92 0.8 N 22 30 12 16 1009.3 1009.3 4.0
20/12:10pm 20.4 20.4 18.9 91 0.9 N 17 26 9 14 1009.6 1009.6 4.0
20/12:00pm 20.4 19.9 18.7 90 1.1 N 19 28 10 15 1009.5 1009.5 3.8
20/11:30am 20.6 20.0 18.4 87 1.4 N 19 24 10 13 1009.5 1009.5 1.6
20/11:00am 21.2 21.3 17.4 79 2.3 N 13 17 7 9 1009.2 1009.2 1.0
20/10:30am 21.1 21.8 17.9 82 2.0 N 11 15 6 8 1009.5 1009.5 1.0
20/10:00am 20.9 21.5 17.7 82 2.0 NNW 11 15 6 8 1009.8 1009.8 0.8
20/09:30am 21.5 21.7 16.7 74 2.9 NNW 11 19 6 10 1010.0 1010.0 0.2
20/09:00am 22.9 23.5 15.7 64 4.3 S 7 20 4 11 1009.5 1009.5 0.0
20/08:30am 23.7 23.7 15.2 59 5.1 W 9 13 5 7 1009.3 1009.3 0.0
20/08:00am 24.2 22.1 14.6 55 5.7 WNW 19 26 10 14 1009.2 1009.2 0.0
20/07:30am 25.1 22.4 13.0 47 7.0 NNW 19 26 10 14 1008.4 1008.4 0.0
20/07:00am 24.8 22.7 11.0 42 7.7 N 13 17 7 9 1007.6 1007.6 0.0
20/06:30am 24.5 21.7 11.5 44 7.4 N 17 20 9 11 1006.9 1006.9 0.0
20/06:00am 23.6 21.6 11.6 47 6.8 N 13 17 7 9 1006.3 1006.3 0.0
20/05:30am 22.8 21.0 10.9 47 6.6 ENE 11 13 6 7 1005.6 1005.6 0.0
20/05:00am 24.2 23.3 11.5 45 7.2 ESE 7 11 4 6 1005.9 1005.9 0.0
20/04:30am 25.3 23.6 11.1 41 8.0 NNW 11 19 6 10 1006.6 1006.6 0.0
20/04:00am 25.4 22.5 8.0 33 9.3 NNE 13 15 7 8 1006.8 1006.8 0.0
20/03:30am 26.4 23.3 5.4 26 10.8 NNW 11 17 6 9 1006.8 1006.8 0.0
20/03:00am 27.7 23.0 3.4 21 12.2 NNW 17 26 9 14 1006.6 1006.6 0.0
20/02:30am 29.5 24.1 2.7 18 13.4 N 20 26 11 14 1005.9 1005.9 0.0
20/02:00am 30.2 24.2 3.3 18 13.6 NNE 24 32 13 17 1005.6 1005.6 0.0
20/01:30am 30.4 24.3 2.6 17 14.0 NNE 24 32 13 17 1005.9 1005.9 0.0
20/01:00am 30.7 24.6 2.9 17 14.0 NNE 24 30 13 16 1006.2 1006.2 0.0
20/12:30am 29.9 24.6 3.0 18 13.6 NE 20 28 11 15 1006.5 1006.5 0.0
20/12:00am 29.7 24.5 3.6 19 13.3 NE 20 28 11 15 1007.1 1007.1 0.0
 
Date/Time
CDT
Tmp

°C
App
Tmp
°C
Dew
Point
°C
Rel
Hum
%
Delta-T

°C
Wind Press
QNH
hPa
Press
MSL
hPa
Rain
since
9 am
mm
Dir
 
Spd
km/h
Gust
km/h
Spd
kts
Gust
kts
19/11:30pm 29.5 24.3 3.5 19 13.2 NE 20 26 11 14 1007.3 1007.3 0.0
19/11:00pm 28.9 24.3 3.7 20 12.7 NE 17 20 9 11 1007.6 1007.6 0.0
19/10:30pm 29.1 24.0 3.1 19 13.0 NE 19 24 10 13 1007.9 1007.9 0.0
19/10:00pm 28.7 24.1 3.5 20 12.7 NE 17 20 9 11 1007.8 1007.8 0.0
19/09:30pm 28.5 23.5 3.4 20 12.6 NE 19 24 10 13 1007.7 1007.7 0.0
19/09:00pm 28.4 23.9 4.0 21 12.4 NE 17 20 9 11 1007.7 1007.7 0.0
19/08:30pm 27.9 24.5 4.2 22 12.0 ENE 11 13 6 7 1007.9 1007.9 0.0
19/08:00pm 28.4 24.9 3.3 20 12.6 ENE 11 13 6 7 1008.2 1008.2 0.0
19/07:30pm 29.1 25.5 3.1 19 13.0 ENE 11 15 6 8 1008.3 1008.3 0.0
19/07:00pm 30.6 28.9 1.9 16 14.2 CALM 0 0 0 0 1008.9 1008.9 0.0
19/06:30pm 31.3 29.6 1.6 15 14.7 CALM 0 0 0 0 1009.3 1009.3 0.0
19/06:00pm 32.1 29.0 1.3 14 15.3 WSW 7 13 4 7 1009.5 1009.5 0.0
19/05:30pm 32.0 28.9 1.2 14 15.2 NW 7 13 4 7 1009.9 1009.9 0.0
19/05:00pm 32.3 27.5 0.4 13 15.6 NNW 15 20 8 11 1010.2 1010.2 0.0
19/04:30pm 32.9 28.0 1.9 14 15.6 NW 17 28 9 15 1010.7 1010.7 0.0
19/04:00pm 32.1 26.5 1.3 14 15.2 NW 20 32 11 17 1011.0 1011.0 0.0
19/03:30pm 32.3 25.4 0.4 13 15.6 WNW 26 37 14 20 1011.3 1011.3 0.0
19/03:00pm 32.6 24.8 -0.5 12 16.0 WNW 30 39 16 21 1011.7 1011.7 0.0
19/02:30pm 32.8 25.8 1.8 14 15.6 W 28 43 15 23 1012.1 1012.1 0.0
19/02:00pm 32.2 25.1 1.3 14 15.3 WNW 28 37 15 20 1012.6 1012.6 0.0
19/01:30pm 31.2 24.4 0.6 14 14.9 NW 26 37 14 20 1013.1 1013.1 0.0
19/01:00pm 31.4 25.1 1.7 15 14.7 NW 24 35 13 19 1013.6 1013.6 0.0
19/12:30pm 30.5 24.8 2.7 17 13.9 NW 22 32 12 17 1014.2 1014.2 0.0
19/12:00pm 30.2 25.1 4.0 19 13.4 NW 20 32 11 17 1014.4 1014.4 0.0
19/11:30am 29.8 24.2 3.7 19 13.3 NW 22 30 12 16 1014.7 1014.7 0.0
19/11:00am 28.5 23.6 4.1 21 12.4 N 19 28 10 15 1014.8 1014.8 0.0
19/10:30am 27.4 23.1 5.1 24 11.4 N 17 26 9 14 1015.2 1015.2 0.0
19/10:00am 26.1 22.0 6.2 28 10.3 N 17 22 9 12 1015.9 1015.9 0.0
19/09:30am 24.5 19.7 5.8 30 9.5 NNE 20 26 11 14 1016.0 1016.0 0.0
19/09:00am 20.7 19.0 7.7 43 6.7 N 6 11 3 6 1016.7 1016.7 0.0
19/08:30am 18.8 18.3 7.9 49 5.6 CALM 0 6 0 3 1016.7 1016.7 0.0
19/08:00am 16.1 14.3 7.8 58 4.2 SSW 7 9 4 5 1017.0 1017.0 0.0
19/07:30am 14.3 13.7 7.6 64 3.3 CALM 0 0 0 0 1016.8 1016.8 0.0
19/07:00am 11.7 11.3 8.2 79 1.7 CALM 0 0 0 0 1017.0 1017.0 0.0
19/06:30am 9.6 8.0 6.3 80 1.5 E 4 6 2 3 1017.2 1017.2 0.0
19/06:00am 10.1 8.6 7.0 81 1.5 ENE 4 9 2 5 1017.3 1017.3 0.0
19/05:30am 10.5 8.7 7.2 80 1.6 N 6 7 3 4 1017.2 1017.2 0.0
19/05:00am 10.5 8.1 7.2 80 1.6 ENE 9 11 5 6 1017.2 1017.2 0.0
19/04:30am 11.4 10.9 7.7 78 1.8 CALM 0 0 0 0 1017.9 1017.9 0.0
19/04:00am 11.2 10.7 7.9 80 1.6 CALM 0 0 0 0 1018.0 1018.0 0.0
19/03:30am 12.5 11.3 8.0 74 2.2 NE 4 7 2 4 1017.9 1017.9 0.0
19/03:00am 12.4 10.8 8.1 75 2.1 SSE 6 9 3 5 1018.1 1018.1 0.0

Latest Capital City Observations: Canberra | Sydney | Melbourne | Brisbane | Adelaide | Perth | Hobart | Darwin

Other Formats:

Comma delimited format used in spreadsheet applications
http://www.bom.gov.au/fwo/IDS60901/IDS60901.95677.axf

JavaScript Object Notation format (JSON) in row-major order
http://www.bom.gov.au/fwo/IDS60901/IDS60901.95677.json